Time;durP1;ratioP1;P1;durP2;ratioP2;P2;SDS_P1;SDS_P2;PMS_P1;PMS_P2;Temp;Humidity;BMP_temperature;BMP_pressure;BME280_temperature;BME280_humidity;BME280_pressure;Samples;Min_cycle;Max_cycle;Signal;HPM_P1;HPM_P2
2024/01/08 00:01:34;;;;;;;;;;;17.30;45.30;;;;;;1611083;73;576;-70
2024/01/08 00:03:37;;;;;;;;;;;17.20;45.20;;;;;;1600310;73;802;-69
2024/01/08 00:05:40;;;;;;;;;;;17.20;45.20;;;;;;1596672;73;1127;-68
2024/01/08 00:07:42;;;;;;;;;;;17.20;45.20;;;;;;1602079;73;565;-70
2024/01/08 00:09:44;;;;;;;;;;;17.20;45.20;;;;;;1603476;73;726;-70
2024/01/08 00:11:46;;;;;;;;;;;17.20;45.20;;;;;;1605785;73;741;-69
2024/01/08 00:13:48;;;;;;;;;;;17.20;45.20;;;;;;1611087;73;794;-70
2024/01/08 00:15:50;;;;;;;;;;;17.20;45.20;;;;;;1599569;73;1929;-72
2024/01/08 00:17:52;;;;;;;;;;;17.20;45.20;;;;;;1601856;73;727;-72
2024/01/08 00:19:54;;;;;;;;;;;17.20;45.20;;;;;;1610073;73;706;-73
2024/01/08 00:21:55;;;;;;;;;;;17.20;45.20;;;;;;1602395;73;665;-71
2024/01/08 00:23:57;;;;;;;;;;;17.30;45.30;;;;;;1605352;73;702;-70
2024/01/08 00:25:59;;;;;;;;;;;17.20;45.20;;;;;;1594141;73;1144;-71
2024/01/08 00:28:01;;;;;;;;;;;17.20;45.10;;;;;;1607184;73;716;-72
2024/01/08 00:30:04;;;;;;;;;;;17.20;45.20;;;;;;1603608;73;787;-71
2024/01/08 00:32:06;;;;;;;;;;;17.20;45.20;;;;;;1597602;73;793;-71
2024/01/08 00:34:08;;;;;;;;;;;17.20;45.20;;;;;;1595321;73;679;-68
2024/01/08 00:36:10;;;;;;;;;;;17.20;45.20;;;;;;1599440;73;1944;-68
2024/01/08 00:38:11;;;;;;;;;;;17.20;45.20;;;;;;1547720;75;1626;-71
2024/01/08 00:40:13;;;;;;;;;;;17.20;45.20;;;;;;1539168;75;680;-72
2024/01/08 00:42:15;;;;;;;;;;;17.30;45.30;;;;;;1542918;75;780;-71
2024/01/08 00:44:17;;;;;;;;;;;17.20;45.20;;;;;;1541113;75;805;-71
2024/01/08 00:46:19;;;;;;;;;;;17.20;45.20;;;;;;1549270;76;1137;-70
2024/01/08 00:48:21;;;;;;;;;;;17.20;45.20;;;;;;1563658;74;721;-71
2024/01/08 00:50:23;;;;;;;;;;;17.20;45.20;;;;;;1559346;75;822;-72
2024/01/08 00:52:24;;;;;;;;;;;17.20;45.20;;;;;;1598741;73;715;-71
2024/01/08 00:54:26;;;;;;;;;;;17.20;45.20;;;;;;1610800;73;750;-72
2024/01/08 00:56:28;;;;;;;;;;;17.20;45.20;;;;;;1598690;73;1934;-71
2024/01/08 00:58:30;;;;;;;;;;;17.20;45.20;;;;;;1607079;73;814;-71
2024/01/08 01:00:32;;;;;;;;;;;17.10;45.20;;;;;;1609250;73;733;-72
2024/01/08 01:02:34;;;;;;;;;;;17.20;45.20;;;;;;1599643;73;1051;-72
2024/01/08 01:04:36;;;;;;;;;;;17.20;45.20;;;;;;1596689;73;727;-70
2024/01/08 01:06:37;;;;;;;;;;;17.20;45.20;;;;;;1610191;73;1154;-70
2024/01/08 01:08:39;;;;;;;;;;;17.20;45.20;;;;;;1600917;73;793;-72
2024/01/08 01:10:42;;;;;;;;;;;17.20;45.20;;;;;;1606262;73;588;-71
2024/01/08 01:12:44;;;;;;;;;;;17.30;45.30;;;;;;1595528;73;775;-71
2024/01/08 01:14:46;;;;;;;;;;;17.30;45.30;;;;;;1592350;73;688;-68
2024/01/08 01:16:47;;;;;;;;;;;17.30;45.30;;;;;;1590620;72;1940;-69
2024/01/08 01:18:49;;;;;;;;;;;17.20;45.20;;;;;;1602776;73;705;-72
2024/01/08 01:20:51;;;;;;;;;;;17.20;45.20;;;;;;1596118;73;805;-73
2024/01/08 01:22:53;;;;;;;;;;;17.20;45.10;;;;;;1607054;73;745;-71
2024/01/08 01:24:55;;;;;;;;;;;17.30;45.20;;;;;;1604998;73;793;-72
2024/01/08 01:26:57;;;;;;;;;;;17.20;45.10;;;;;;1603201;73;1161;-70
2024/01/08 01:28:59;;;;;;;;;;;17.20;45.10;;;;;;1593442;73;821;-71
2024/01/08 01:31:03;;;;;;;;;;;17.30;45.20;;;;;;1608515;73;724;-71
2024/01/08 01:33:04;;;;;;;;;;;17.30;45.20;;;;;;1595860;73;1688;-72
2024/01/08 01:35:06;;;;;;;;;;;17.30;45.20;;;;;;1603965;73;737;-72
2024/01/08 01:37:09;;;;;;;;;;;17.30;45.10;;;;;;1585575;73;1934;-69
2024/01/08 01:39:10;;;;;;;;;;;17.30;45.10;;;;;;1603862;73;722;-72
2024/01/08 01:41:12;;;;;;;;;;;17.30;45.10;;;;;;1597519;73;792;-71
2024/01/08 01:43:21;;;;;;;;;;;17.30;45.10;;;;;;1583775;73;748;-73
2024/01/08 01:45:23;;;;;;;;;;;17.30;45.00;;;;;;1602617;73;807;-72
2024/01/08 01:47:25;;;;;;;;;;;17.40;45.10;;;;;;1596599;73;1118;-73
2024/01/08 01:49:26;;;;;;;;;;;17.40;45.00;;;;;;1587537;73;733;-69
2024/01/08 01:51:28;;;;;;;;;;;17.30;45.00;;;;;;1595450;73;762;-69
2024/01/08 01:53:30;;;;;;;;;;;17.30;45.00;;;;;;1594804;73;788;-72
2024/01/08 01:55:32;;;;;;;;;;;17.30;45.00;;;;;;1592611;73;1952;-73
2024/01/08 01:57:34;;;;;;;;;;;17.30;44.90;;;;;;1602703;73;1167;-69
2024/01/08 01:59:36;;;;;;;;;;;17.40;44.90;;;;;;1604117;73;687;-70
2024/01/08 02:01:38;;;;;;;;;;;17.30;44.90;;;;;;1606137;73;574;-70
2024/01/08 02:03:40;;;;;;;;;;;17.30;44.90;;;;;;1602046;73;614;-71
2024/01/08 02:05:42;;;;;;;;;;;17.30;44.90;;;;;;1597836;73;1174;-69
2024/01/08 02:07:44;;;;;;;;;;;17.30;44.90;;;;;;1602314;73;776;-72
2024/01/08 02:09:45;;;;;;;;;;;17.40;44.90;;;;;;1603503;73;727;-70
2024/01/08 02:11:47;;;;;;;;;;;17.40;44.90;;;;;;1606997;73;783;-71
2024/01/08 02:13:49;;;;;;;;;;;17.30;44.90;;;;;;1607629;73;730;-72
2024/01/08 02:15:51;;;;;;;;;;;17.30;44.90;;;;;;1604487;73;1941;-72
2024/01/08 02:17:53;;;;;;;;;;;17.30;44.90;;;;;;1590818;73;923;-71
2024/01/08 02:19:55;;;;;;;;;;;17.40;44.80;;;;;;1611794;73;747;-70
2024/01/08 02:21:57;;;;;;;;;;;17.30;44.80;;;;;;1610426;73;802;-72
2024/01/08 02:23:58;;;;;;;;;;;17.40;44.80;;;;;;1603029;73;729;-71
2024/01/08 02:26:00;;;;;;;;;;;17.30;44.80;;;;;;1607008;73;1202;-72
2024/01/08 02:28:02;;;;;;;;;;;17.30;44.80;;;;;;1612263;73;785;-72
2024/01/08 02:30:05;;;;;;;;;;;17.40;44.80;;;;;;1599472;73;1482;-73
2024/01/08 02:32:07;;;;;;;;;;;17.40;44.80;;;;;;1600183;73;799;-70
2024/01/08 02:34:09;;;;;;;;;;;17.40;44.80;;;;;;1602505;73;691;-72
2024/01/08 02:36:11;;;;;;;;;;;17.40;44.70;;;;;;1606760;73;1950;-73
2024/01/08 02:38:12;;;;;;;;;;;17.40;44.70;;;;;;1601219;73;742;-73
2024/01/08 02:40:15;;;;;;;;;;;17.30;44.70;;;;;;1593367;73;745;-72
2024/01/08 02:42:18;;;;;;;;;;;17.40;44.70;;;;;;1606530;73;724;-72
2024/01/08 02:44:20;;;;;;;;;;;17.40;44.70;;;;;;1600876;73;625;-70
2024/01/08 02:46:22;;;;;;;;;;;17.40;44.70;;;;;;1603955;73;1119;-71
2024/01/08 02:48:24;;;;;;;;;;;17.30;44.70;;;;;;1593153;73;726;-70
2024/01/08 02:50:26;;;;;;;;;;;17.40;44.70;;;;;;1591106;73;664;-70
2024/01/08 02:52:28;;;;;;;;;;;17.40;44.70;;;;;;1592956;73;655;-69
2024/01/08 02:54:30;;;;;;;;;;;17.40;44.70;;;;;;1599904;73;670;-71
2024/01/08 02:56:31;;;;;;;;;;;17.30;44.70;;;;;;1600262;73;1932;-72
2024/01/08 02:58:33;;;;;;;;;;;17.40;44.70;;;;;;1605258;72;788;-71
2024/01/08 03:00:35;;;;;;;;;;;17.30;44.70;;;;;;1606535;73;613;-70
2024/01/08 03:02:37;;;;;;;;;;;17.20;44.60;;;;;;1603803;73;721;-72
2024/01/08 03:04:39;;;;;;;;;;;17.30;44.70;;;;;;1587469;73;644;-72
2024/01/08 03:06:41;;;;;;;;;;;17.30;44.70;;;;;;1602753;73;1213;-72
2024/01/08 03:08:43;;;;;;;;;;;17.30;44.70;;;;;;1594691;73;793;-73
2024/01/08 03:10:44;;;;;;;;;;;17.40;44.70;;;;;;1593463;73;705;-73
2024/01/08 03:12:46;;;;;;;;;;;17.40;44.70;;;;;;1608609;73;741;-70
2024/01/08 03:14:48;;;;;;;;;;;17.30;44.70;;;;;;1602847;71;772;-69
2024/01/08 03:16:50;;;;;;;;;;;17.30;44.70;;;;;;1587863;73;1935;-70
2024/01/08 03:18:52;;;;;;;;;;;17.30;44.70;;;;;;1597299;73;604;-71
2024/01/08 03:20:54;;;;;;;;;;;17.30;44.70;;;;;;1593702;73;830;-72
2024/01/08 03:22:56;;;;;;;;;;;17.30;44.70;;;;;;1598635;73;720;-70
2024/01/08 03:24:58;;;;;;;;;;;17.30;44.70;;;;;;1605754;73;815;-72
2024/01/08 03:27:00;;;;;;;;;;;17.40;44.70;;;;;;1608969;73;1646;-69
2024/01/08 03:29:01;;;;;;;;;;;17.30;44.70;;;;;;1608740;73;832;-71
2024/01/08 03:31:03;;;;;;;;;;;17.40;44.70;;;;;;1600209;73;734;-73
2024/01/08 03:33:05;;;;;;;;;;;17.30;44.70;;;;;;1603599;73;749;-69
2024/01/08 03:35:07;;;;;;;;;;;17.30;44.80;;;;;;1604116;73;686;-72
2024/01/08 03:37:09;;;;;;;;;;;17.30;44.80;;;;;;1599092;73;1924;-72
2024/01/08 03:39:12;;;;;;;;;;;17.40;44.70;;;;;;1598458;73;690;-70
2024/01/08 03:41:14;;;;;;;;;;;17.30;44.70;;;;;;1600723;73;771;-70
2024/01/08 03:43:16;;;;;;;;;;;17.30;44.70;;;;;;1590555;73;712;-72
2024/01/08 03:45:17;;;;;;;;;;;17.30;44.70;;;;;;1609373;73;759;-72
2024/01/08 03:47:19;;;;;;;;;;;17.30;44.70;;;;;;1603186;73;1067;-72
2024/01/08 03:49:21;;;;;;;;;;;17.30;44.70;;;;;;1599117;73;749;-71
2024/01/08 03:51:23;;;;;;;;;;;17.30;44.70;;;;;;1600408;73;794;-69
2024/01/08 03:53:25;;;;;;;;;;;17.40;44.70;;;;;;1600281;73;780;-71
2024/01/08 03:55:27;;;;;;;;;;;17.40;44.70;;;;;;1606289;73;725;-71
2024/01/08 03:57:29;;;;;;;;;;;17.40;44.70;;;;;;1608673;73;1955;-71
2024/01/08 03:59:31;;;;;;;;;;;17.30;44.70;;;;;;1605138;73;647;-72
2024/01/08 04:01:33;;;;;;;;;;;17.30;44.70;;;;;;1597469;73;646;-73
2024/01/08 04:03:35;;;;;;;;;;;17.30;44.70;;;;;;1602353;73;803;-72
2024/01/08 04:05:37;;;;;;;;;;;17.30;44.70;;;;;;1596607;73;1187;-72
2024/01/08 04:07:39;;;;;;;;;;;17.40;44.70;;;;;;1565707;74;1233;-70
2024/01/08 04:09:41;;;;;;;;;;;17.30;44.70;;;;;;1592494;73;685;-70
2024/01/08 04:11:43;;;;;;;;;;;17.30;44.70;;;;;;1595026;73;715;-70
2024/01/08 04:13:45;;;;;;;;;;;17.30;44.60;;;;;;1604838;73;820;-72
2024/01/08 04:15:47;;;;;;;;;;;17.30;44.70;;;;;;1606056;73;1142;-72
2024/01/08 04:17:49;;;;;;;;;;;17.30;44.60;;;;;;1592676;73;1924;-69
2024/01/08 04:19:50;;;;;;;;;;;17.30;44.70;;;;;;1595402;73;748;-71
2024/01/08 04:21:52;;;;;;;;;;;17.30;44.70;;;;;;1605472;73;1332;-72
2024/01/08 04:23:54;;;;;;;;;;;17.30;44.70;;;;;;1597238;73;681;-71
2024/01/08 04:25:56;;;;;;;;;;;17.30;44.70;;;;;;1601599;73;1131;-71
2024/01/08 04:27:58;;;;;;;;;;;17.30;44.70;;;;;;1597129;73;695;-72
2024/01/08 04:30:00;;;;;;;;;;;17.30;44.70;;;;;;1606342;73;784;-69
2024/01/08 04:32:02;;;;;;;;;;;17.30;44.70;;;;;;1595868;73;684;-73
2024/01/08 04:34:04;;;;;;;;;;;17.20;44.60;;;;;;1593308;73;717;-72
2024/01/08 04:36:06;;;;;;;;;;;17.30;44.70;;;;;;1610963;73;1154;-69
2024/01/08 04:38:07;;;;;;;;;;;17.30;44.60;;;;;;1603032;73;1942;-73
2024/01/08 04:40:10;;;;;;;;;;;17.30;44.70;;;;;;1606442;73;629;-72
2024/01/08 04:42:12;;;;;;;;;;;17.30;44.70;;;;;;1597961;73;744;-71
2024/01/08 04:44:14;;;;;;;;;;;17.20;44.60;;;;;;1595850;73;903;-71
2024/01/08 04:46:16;;;;;;;;;;;17.30;44.70;;;;;;1593589;73;1172;-70
2024/01/08 04:48:18;;;;;;;;;;;17.20;44.50;;;;;;1598282;73;811;-73
2024/01/08 04:50:19;;;;;;;;;;;17.30;44.70;;;;;;1608041;73;606;-72
2024/01/08 04:52:21;;;;;;;;;;;17.20;44.50;;;;;;1601269;73;664;-71
2024/01/08 04:54:23;;;;;;;;;;;17.20;44.60;;;;;;1603177;73;723;-72
2024/01/08 04:56:27;;;;;;;;;;;17.20;44.60;;;;;;1593413;73;1177;-71
2024/01/08 04:58:29;;;;;;;;;;;17.30;44.70;;;;;;1607939;73;1888;-71
2024/01/08 05:00:31;;;;;;;;;;;17.30;44.70;;;;;;1601745;73;709;-71
2024/01/08 05:02:33;;;;;;;;;;;17.30;44.70;;;;;;1593620;73;728;-72
2024/01/08 05:04:35;;;;;;;;;;;17.20;44.60;;;;;;1605362;73;754;-72
2024/01/08 05:06:36;;;;;;;;;;;17.30;44.70;;;;;;1605740;73;1168;-71
2024/01/08 05:08:38;;;;;;;;;;;17.20;44.50;;;;;;1594012;73;803;-70
2024/01/08 05:10:40;;;;;;;;;;;17.20;44.60;;;;;;1597473;73;729;-71
2024/01/08 05:12:42;;;;;;;;;;;17.20;44.60;;;;;;1609703;73;763;-69
2024/01/08 05:14:45;;;;;;;;;;;17.20;44.60;;;;;;1594666;73;597;-70
2024/01/08 05:16:47;;;;;;;;;;;17.30;44.70;;;;;;1592393;73;1944;-72
2024/01/08 05:18:49;;;;;;;;;;;17.20;44.60;;;;;;1602831;73;1565;-72
2024/01/08 05:20:51;;;;;;;;;;;17.20;44.60;;;;;;1605310;73;716;-72
2024/01/08 05:22:53;;;;;;;;;;;17.20;44.60;;;;;;1612740;71;783;-69
2024/01/08 05:24:55;;;;;;;;;;;17.20;44.60;;;;;;1605205;73;696;-72
2024/01/08 05:26:57;;;;;;;;;;;17.20;44.60;;;;;;1592435;73;1163;-68
2024/01/08 05:28:59;;;;;;;;;;;17.20;44.60;;;;;;1604164;73;705;-72
2024/01/08 05:31:01;;;;;;;;;;;17.20;44.60;;;;;;1596553;73;668;-72
2024/01/08 05:33:03;;;;;;;;;;;17.20;44.60;;;;;;1601490;73;716;-72
2024/01/08 05:35:05;;;;;;;;;;;17.20;44.70;;;;;;1607947;73;672;-71
2024/01/08 05:37:06;;;;;;;;;;;17.20;44.70;;;;;;1607572;73;1948;-70
2024/01/08 05:39:08;;;;;;;;;;;17.20;44.70;;;;;;1602479;73;727;-70
2024/01/08 05:41:10;;;;;;;;;;;17.20;44.60;;;;;;1600931;73;778;-70
2024/01/08 05:43:13;;;;;;;;;;;17.20;44.70;;;;;;1598000;73;662;-70
2024/01/08 05:45:15;;;;;;;;;;;17.20;44.70;;;;;;1594324;73;787;-70
2024/01/08 05:47:16;;;;;;;;;;;17.20;44.70;;;;;;1591473;73;1161;-72
2024/01/08 05:49:18;;;;;;;;;;;17.20;44.70;;;;;;1599845;73;673;-71
2024/01/08 05:51:20;;;;;;;;;;;17.20;44.60;;;;;;1594572;72;745;-72
2024/01/08 05:53:22;;;;;;;;;;;17.20;44.70;;;;;;1602167;73;621;-74
2024/01/08 05:55:24;;;;;;;;;;;17.20;44.70;;;;;;1587391;73;723;-72
2024/01/08 05:57:26;;;;;;;;;;;17.20;44.60;;;;;;1607312;73;1944;-69
2024/01/08 05:59:28;;;;;;;;;;;17.20;44.70;;;;;;1610003;73;566;-68
2024/01/08 06:01:29;;;;;;;;;;;17.20;44.60;;;;;;1614356;73;726;-71
2024/01/08 06:03:31;;;;;;;;;;;17.20;44.60;;;;;;1551997;75;595;-69
2024/01/08 06:05:34;;;;;;;;;;;17.20;44.70;;;;;;1549750;75;773;-72
2024/01/08 06:07:36;;;;;;;;;;;17.20;44.60;;;;;;1536729;76;1145;-71
2024/01/08 06:09:38;;;;;;;;;;;17.20;44.70;;;;;;1599103;73;712;-72
2024/01/08 06:11:40;;;;;;;;;;;17.20;44.70;;;;;;1600751;73;733;-69
2024/01/08 06:13:42;;;;;;;;;;;17.20;44.60;;;;;;1615335;73;781;-70
2024/01/08 06:15:44;;;;;;;;;;;17.10;44.70;;;;;;1594482;73;1647;-70
2024/01/08 06:17:46;;;;;;;;;;;17.20;44.60;;;;;;1591719;73;1899;-72
2024/01/08 06:19:48;;;;;;;;;;;17.20;44.60;;;;;;1600643;71;774;-71
2024/01/08 06:21:50;;;;;;;;;;;17.20;44.60;;;;;;1603459;73;718;-73
2024/01/08 06:23:52;;;;;;;;;;;17.10;44.70;;;;;;1593688;73;805;-71
2024/01/08 06:25:54;;;;;;;;;;;17.20;44.70;;;;;;1597827;73;1154;-73
2024/01/08 06:27:56;;;;;;;;;;;17.20;44.70;;;;;;1594902;73;740;-67
2024/01/08 06:29:59;;;;;;;;;;;17.10;44.60;;;;;;1606696;73;738;-69
2024/01/08 06:32:01;;;;;;;;;;;17.10;44.60;;;;;;1603600;73;775;-69
2024/01/08 06:34:02;;;;;;;;;;;17.20;44.60;;;;;;1602662;73;738;-71
2024/01/08 06:36:05;;;;;;;;;;;17.10;44.70;;;;;;1591412;73;1157;-69
2024/01/08 06:38:07;;;;;;;;;;;17.20;44.70;;;;;;1595471;73;1930;-72
2024/01/08 06:40:09;;;;;;;;;;;17.10;44.70;;;;;;1602994;73;820;-72
2024/01/08 06:42:11;;;;;;;;;;;17.10;44.70;;;;;;1604109;73;740;-70
2024/01/08 06:44:13;;;;;;;;;;;17.20;44.70;;;;;;1608253;73;794;-69
2024/01/08 06:46:14;;;;;;;;;;;17.10;44.60;;;;;;1592309;73;1164;-74
2024/01/08 06:48:16;;;;;;;;;;;17.10;44.70;;;;;;1590626;73;703;-70
2024/01/08 06:50:18;;;;;;;;;;;17.10;44.60;;;;;;1609689;73;738;-71
2024/01/08 06:52:20;;;;;;;;;;;17.10;44.60;;;;;;1607848;73;753;-71
2024/01/08 06:54:22;;;;;;;;;;;17.20;44.60;;;;;;1603064;73;572;-71
2024/01/08 06:56:24;;;;;;;;;;;17.10;44.70;;;;;;1597775;73;1153;-72
2024/01/08 06:58:26;;;;;;;;;;;17.10;44.70;;;;;;1602582;73;1925;-72
2024/01/08 07:00:28;;;;;;;;;;;17.10;44.70;;;;;;1600849;73;718;-71
2024/01/08 07:02:30;;;;;;;;;;;17.10;44.60;;;;;;1602869;73;613;-69
2024/01/08 07:04:32;;;;;;;;;;;17.20;44.70;;;;;;1596621;73;722;-68
2024/01/08 07:06:34;;;;;;;;;;;17.20;44.70;;;;;;1596639;73;1175;-70
2024/01/08 07:08:36;;;;;;;;;;;17.10;44.70;;;;;;1606866;73;750;-72
2024/01/08 07:10:38;;;;;;;;;;;17.20;44.60;;;;;;1597383;73;1185;-70
2024/01/08 07:12:40;;;;;;;;;;;17.10;44.70;;;;;;1599262;73;735;-71
2024/01/08 07:14:49;;;;;;;;;;;17.20;44.60;;;;;;1602177;73;728;-71
2024/01/08 07:16:51;;;;;;;;;;;17.20;44.70;;;;;;1597226;73;1119;-72
2024/01/08 07:18:54;;;;;;;;;;;17.10;44.70;;;;;;1606259;73;1946;-73
2024/01/08 07:20:56;;;;;;;;;;;17.10;44.60;;;;;;1597425;73;719;-71
2024/01/08 07:22:58;;;;;;;;;;;17.10;44.60;;;;;;1603278;73;804;-72
2024/01/08 07:24:59;;;;;;;;;;;17.20;44.70;;;;;;1600308;73;738;-72
2024/01/08 07:27:01;;;;;;;;;;;17.10;44.60;;;;;;1608886;73;1174;-71
2024/01/08 07:29:03;;;;;;;;;;;17.10;44.70;;;;;;1603257;73;844;-70
2024/01/08 07:31:05;;;;;;;;;;;17.10;44.60;;;;;;1593513;73;768;-72
2024/01/08 07:33:07;;;;;;;;;;;17.10;44.60;;;;;;1591902;73;677;-72
2024/01/08 07:35:09;;;;;;;;;;;17.10;44.60;;;;;;1600114;73;705;-73
2024/01/08 07:37:11;;;;;;;;;;;17.10;44.60;;;;;;1612746;73;1141;-72
2024/01/08 07:39:18;;;;;;;;;;;17.20;44.60;;;;;;1597597;73;1926;-70
2024/01/08 07:41:16;;;;;;;;;;;17.00;44.50;;;;;;1591851;73;1601;-69
2024/01/08 07:43:18;;;;;;;;;;;17.20;44.60;;;;;;1598944;73;733;-72
2024/01/08 07:45:20;;;;;;;;;;;17.10;44.60;;;;;;1591801;73;713;-71
2024/01/08 07:47:22;;;;;;;;;;;17.10;44.60;;;;;;1601657;73;1093;-72
2024/01/08 07:49:24;;;;;;;;;;;17.20;44.60;;;;;;1597798;73;752;-70
2024/01/08 07:51:26;;;;;;;;;;;17.10;44.60;;;;;;1599152;73;614;-70
2024/01/08 07:53:28;;;;;;;;;;;17.10;44.60;;;;;;1604538;73;731;-68
2024/01/08 07:55:30;;;;;;;;;;;17.10;44.60;;;;;;1592068;73;712;-71
2024/01/08 07:57:32;;;;;;;;;;;17.10;44.70;;;;;;1590696;73;1050;-73
2024/01/08 07:59:34;;;;;;;;;;;17.10;44.60;;;;;;1598259;73;1938;-69
2024/01/08 08:01:35;;;;;;;;;;;17.20;44.60;;;;;;1606099;73;687;-71
2024/01/08 08:03:38;;;;;;;;;;;17.10;44.60;;;;;;1601945;73;725;-71
2024/01/08 08:05:40;;;;;;;;;;;17.10;44.60;;;;;;1607083;73;1102;-71
2024/01/08 08:07:42;;;;;;;;;;;17.20;44.70;;;;;;1599957;73;1558;-70
2024/01/08 08:09:43;;;;;;;;;;;17.10;44.60;;;;;;1596530;73;774;-73
2024/01/08 08:11:45;;;;;;;;;;;17.10;44.60;;;;;;1602239;73;727;-73
2024/01/08 08:13:47;;;;;;;;;;;17.20;44.70;;;;;;1613718;73;825;-69
2024/01/08 08:15:49;;;;;;;;;;;17.10;44.70;;;;;;1596415;73;1134;-70
2024/01/08 08:17:51;;;;;;;;;;;17.10;44.60;;;;;;1601448;73;1928;-72
2024/01/08 08:19:53;;;;;;;;;;;17.10;44.60;;;;;;1599642;73;909;-70
2024/01/08 08:21:55;;;;;;;;;;;17.10;44.60;;;;;;1607588;73;728;-71
2024/01/08 08:23:58;;;;;;;;;;;17.10;44.60;;;;;;1596802;73;795;-71
2024/01/08 08:25:59;;;;;;;;;;;17.10;44.70;;;;;;1604434;73;1201;-70
2024/01/08 08:28:01;;;;;;;;;;;17.10;44.70;;;;;;1592793;73;745;-72
2024/01/08 08:30:03;;;;;;;;;;;17.10;44.70;;;;;;1606103;73;820;-73
2024/01/08 08:32:05;;;;;;;;;;;17.10;44.70;;;;;;1598822;73;709;-71
2024/01/08 08:34:07;;;;;;;;;;;17.10;44.70;;;;;;1603745;73;683;-72
2024/01/08 08:36:09;;;;;;;;;;;17.10;44.70;;;;;;1590593;73;1096;-70
2024/01/08 08:38:12;;;;;;;;;;;17.10;44.60;;;;;;1602467;73;1919;-68
2024/01/08 08:40:14;;;;;;;;;;;17.10;44.70;;;;;;1597329;73;802;-68
2024/01/08 08:42:16;;;;;;;;;;;17.10;44.70;;;;;;1602680;73;776;-72
2024/01/08 08:44:18;;;;;;;;;;;17.10;44.70;;;;;;1602708;73;709;-72
2024/01/08 08:46:20;;;;;;;;;;;17.10;44.60;;;;;;1601030;73;1194;-73
2024/01/08 08:48:22;;;;;;;;;;;17.10;44.60;;;;;;1594418;73;701;-72
2024/01/08 08:50:24;;;;;;;;;;;17.10;44.70;;;;;;1602068;73;743;-70
2024/01/08 08:52:26;;;;;;;;;;;17.10;44.70;;;;;;1603179;73;816;-69
2024/01/08 08:54:27;;;;;;;;;;;17.10;44.70;;;;;;1592894;73;816;-70
2024/01/08 08:56:30;;;;;;;;;;;17.10;44.70;;;;;;1604374;73;1148;-69
2024/01/08 08:58:31;;;;;;;;;;;17.10;44.70;;;;;;1600244;73;1905;-71
2024/01/08 09:00:33;;;;;;;;;;;17.10;44.70;;;;;;1599663;73;772;-70
2024/01/08 09:02:35;;;;;;;;;;;17.20;44.70;;;;;;1603410;73;1532;-71
2024/01/08 09:04:37;;;;;;;;;;;17.10;44.60;;;;;;1598028;73;739;-72
2024/01/08 09:06:39;;;;;;;;;;;17.10;44.60;;;;;;1599203;73;1169;-72
2024/01/08 09:08:41;;;;;;;;;;;17.20;44.50;;;;;;1598789;73;723;-71
2024/01/08 09:10:43;;;;;;;;;;;17.20;44.60;;;;;;1597566;73;1026;-68
2024/01/08 09:12:45;;;;;;;;;;;17.20;44.50;;;;;;1606844;73;709;-69
2024/01/08 09:14:47;;;;;;;;;;;17.20;44.40;;;;;;1607734;73;714;-70
2024/01/08 09:16:49;;;;;;;;;;;17.20;44.40;;;;;;1604136;73;1146;-71
2024/01/08 09:18:51;;;;;;;;;;;17.20;44.40;;;;;;1602826;73;1928;-71
2024/01/08 09:20:54;;;;;;;;;;;17.20;44.40;;;;;;1599488;73;593;-72
2024/01/08 09:22:55;;;;;;;;;;;17.20;44.40;;;;;;1605420;73;753;-70
2024/01/08 09:24:57;;;;;;;;;;;17.20;44.40;;;;;;1608017;73;818;-72
2024/01/08 09:26:59;;;;;;;;;;;17.30;44.40;;;;;;1601162;73;1149;-72
2024/01/08 09:29:01;;;;;;;;;;;17.30;44.50;;;;;;1590959;73;671;-72
2024/01/08 09:31:03;;;;;;;;;;;17.30;44.50;;;;;;1603314;73;801;-70
2024/01/08 09:33:05;;;;;;;;;;;17.20;44.40;;;;;;1598050;73;716;-72
2024/01/08 09:35:07;;;;;;;;;;;17.20;44.30;;;;;;1599901;73;728;-70
2024/01/08 09:37:09;;;;;;;;;;;17.20;44.30;;;;;;1608548;73;1103;-72
2024/01/08 09:39:11;;;;;;;;;;;17.30;44.40;;;;;;1597703;73;1935;-71
2024/01/08 09:41:13;;;;;;;;;;;17.20;44.20;;;;;;1595755;73;756;-72
2024/01/08 09:43:19;;;;;;;;;;;17.30;44.40;;;;;;1589541;73;793;-71
2024/01/08 09:45:22;;;;;;;;;;;17.30;44.40;;;;;;1590853;73;756;-70
2024/01/08 09:47:25;;;;;;;;;;;17.30;44.40;;;;;;1611475;73;1147;-69
2024/01/08 09:49:29;;;;;;;;;;;17.20;44.30;;;;;;1598349;73;731;-72
2024/01/08 09:51:30;;;;;;;;;;;17.30;44.40;;;;;;1593747;73;1678;-68
2024/01/08 09:53:32;;;;;;;;;;;17.20;44.20;;;;;;1596918;73;697;-69
2024/01/08 09:55:34;;;;;;;;;;;17.20;44.20;;;;;;1613924;73;691;-71
2024/01/08 09:57:36;;;;;;;;;;;17.30;44.30;;;;;;1609752;73;1149;-71
2024/01/08 09:59:38;;;;;;;;;;;17.30;44.30;;;;;;1597413;73;1936;-69
2024/01/08 10:01:41;;;;;;;;;;;17.30;44.30;;;;;;1605445;73;757;-69
2024/01/08 10:03:43;;;;;;;;;;;17.30;44.30;;;;;;1602442;73;746;-72
2024/01/08 10:05:45;;;;;;;;;;;17.30;44.30;;;;;;1609030;73;1130;-71
2024/01/08 10:07:47;;;;;;;;;;;17.30;44.30;;;;;;1610496;73;716;-72
2024/01/08 10:09:50;;;;;;;;;;;17.30;44.20;;;;;;1599806;73;712;-71
2024/01/08 10:11:52;;;;;;;;;;;17.30;44.30;;;;;;1611215;73;730;-70
2024/01/08 10:13:55;;;;;;;;;;;17.30;44.30;;;;;;1615811;73;633;-72
2024/01/08 10:15:58;;;;;;;;;;;17.30;44.20;;;;;;1605502;73;1150;-69
2024/01/08 10:18:06;;;;;;;;;;;17.30;44.30;;;;;;1592966;73;719;-71
2024/01/08 10:20:07;;;;;;;;;;;17.30;44.30;;;;;;1601182;73;1912;-72
2024/01/08 10:22:10;;;;;;;;;;;17.30;44.20;;;;;;1582135;73;741;-71
2024/01/08 10:24:12;;;;;;;;;;;17.30;44.30;;;;;;1592088;73;733;-72
2024/01/08 10:26:16;;;;;;;;;;;17.30;44.20;;;;;;1597658;73;1167;-72
2024/01/08 10:28:19;;;;;;;;;;;17.30;44.30;;;;;;1603240;73;1431;-73
2024/01/08 10:30:20;;;;;;;;;;;17.30;44.20;;;;;;1605373;73;785;-70
2024/01/08 10:32:25;;;;;;;;;;;17.30;44.20;;;;;;1592198;73;771;-71
2024/01/08 10:34:27;;;;;;;;;;;17.30;44.20;;;;;;1603819;73;747;-70
2024/01/08 10:36:30;;;;;;;;;;;17.30;44.20;;;;;;1605340;73;1142;-73
2024/01/08 10:38:35;;;;;;;;;;;17.30;44.20;;;;;;1604778;73;718;-70
2024/01/08 10:40:37;;;;;;;;;;;17.30;44.20;;;;;;1597810;73;1911;-72
2024/01/08 10:42:41;;;;;;;;;;;17.30;44.20;;;;;;1600975;73;778;-70
2024/01/08 10:44:43;;;;;;;;;;;17.30;44.20;;;;;;1596081;73;1623;-72
2024/01/08 10:46:46;;;;;;;;;;;17.30;44.20;;;;;;1587876;73;1187;-73
2024/01/08 10:48:48;;;;;;;;;;;17.30;44.20;;;;;;1607706;73;771;-71
2024/01/08 10:50:52;;;;;;;;;;;17.30;44.20;;;;;;1601413;73;772;-71
2024/01/08 10:52:56;;;;;;;;;;;17.30;44.20;;;;;;1603464;73;706;-71
2024/01/08 10:54:58;;;;;;;;;;;17.30;44.20;;;;;;1599749;73;687;-71
2024/01/08 10:57:00;;;;;;;;;;;17.40;44.20;;;;;;1607192;73;1389;-70
2024/01/08 10:59:06;;;;;;;;;;;17.30;44.20;;;;;;1603205;73;1920;-74
2024/01/08 11:01:08;;;;;;;;;;;17.30;44.20;;;;;;1590798;73;687;-72
2024/01/08 11:03:10;;;;;;;;;;;17.30;44.20;;;;;;1591184;73;600;-72
2024/01/08 11:05:13;;;;;;;;;;;17.30;44.20;;;;;;1597594;73;709;-71
2024/01/08 11:07:15;;;;;;;;;;;17.30;44.20;;;;;;1604953;73;1129;-72
2024/01/08 11:09:27;;;;;;;;;;;17.30;44.20;;;;;;1613328;72;824;-72
2024/01/08 11:11:28;;;;;;;;;;;17.30;44.20;;;;;;1605060;73;745;-70
2024/01/08 11:13:31;;;;;;;;;;;17.30;44.10;;;;;;1602530;73;642;-70
2024/01/08 11:15:33;;;;;;;;;;;17.20;44.10;;;;;;1600103;73;702;-72
2024/01/08 11:17:35;;;;;;;;;;;17.30;44.20;;;;;;1608305;73;1111;-72
2024/01/08 11:19:40;;;;;;;;;;;17.30;44.10;;;;;;1599966;73;1937;-72
2024/01/08 11:21:42;;;;;;;;;;;17.30;44.20;;;;;;1598456;73;675;-69
2024/01/08 11:23:44;;;;;;;;;;;17.30;44.20;;;;;;1596738;73;599;-72
2024/01/08 11:25:52;;;;;;;;;;;17.30;44.10;;;;;;1606985;73;1140;-72
2024/01/08 11:27:56;;;;;;;;;;;17.30;44.20;;;;;;1597952;73;704;-69
2024/01/08 11:29:58;;;;;;;;;;;17.30;44.20;;;;;;1605591;73;1978;-71
2024/01/08 11:32:18;;;;;;;;;;;17.20;44.10;;;;;;1596700;73;903;-70
2024/01/08 11:34:40;;;;;;;;;;;17.30;44.10;;;;;;1606442;73;716;-71
2024/01/08 11:36:48;;;;;;;;;;;17.30;44.20;;;;;;1601099;73;1155;-71
2024/01/08 11:38:51;;;;;;;;;;;17.30;44.20;;;;;;1609346;73;748;-72
2024/01/08 11:40:56;;;;;;;;;;;17.20;44.00;;;;;;1594605;73;1932;-71
2024/01/08 11:42:58;;;;;;;;;;;17.30;44.20;;;;;;1602685;73;774;-74
2024/01/08 11:45:01;;;;;;;;;;;17.30;44.20;;;;;;1592658;73;659;-72
2024/01/08 11:47:03;;;;;;;;;;;17.30;44.20;;;;;;1601996;73;1098;-70
2024/01/08 11:49:05;;;;;;;;;;;17.30;44.20;;;;;;1597961;73;737;-72
2024/01/08 11:51:07;;;;;;;;;;;17.20;44.10;;;;;;1585787;73;729;-71
2024/01/08 11:53:12;;;;;;;;;;;17.30;44.20;;;;;;1589758;73;1375;-70
2024/01/08 11:55:14;;;;;;;;;;;17.30;44.20;;;;;;1599107;73;644;-70
2024/01/08 11:57:17;;;;;;;;;;;17.20;44.10;;;;;;1601625;73;1128;-70
2024/01/08 11:59:31;;;;;;;;;;;17.30;44.20;;;;;;1604581;73;1901;-72
2024/01/08 12:01:33;;;;;;;;;;;17.20;44.20;;;;;;1600956;73;674;-70
2024/01/08 12:03:35;;;;;;;;;;;17.30;44.20;;;;;;1610409;73;747;-71
2024/01/08 12:05:37;;;;;;;;;;;17.30;44.20;;;;;;1599847;73;722;-70
2024/01/08 12:07:39;;;;;;;;;;;17.30;44.20;;;;;;1592564;73;881;-71
2024/01/08 12:09:41;;;;;;;;;;;17.20;44.20;;;;;;1607750;73;827;-72